< < Back
Terminal Aerodrome Forecast


Current Version              Previous Versions:   1  2  3  4  5  6  7  8  9  

Terminal Aerodrome Forecast

288
FTUS42 KFFC 011122
TAFMCN
TAF
KMCN 011122Z 0112/0212 08010KT 4SM -RADZ OVC004
     FM011500 08008KT 5SM -RADZ OVC004
     FM011900 08005KT 6SM BR BKN008
     FM020200 00000KT 2SM -DZ OVC004=

Latest METAR

300
SAUS80 KWBC 011200 RRF
MTRMCN
METAR KMCN 011153Z AUTO 05008KT 3SM BR OVC006 03/03 A3050 RMK AO2 SLP328
60008 70011 T00330033 10056 20033 53002 TSNO


USA.gov is the U.S. government's official web portal to all federal, state and local government web resources and services.